sensor_id;sensor_type;location;lat;lon;timestamp;pressure;altitude;pressure_sealevel;temperature;humidity
66396;BME280;53207;51.378;-1.342;2023-06-26T00:01:49;100295.40;;;31.19;28.58
66396;BME280;53207;51.378;-1.342;2023-06-26T00:04:16;100298.16;;;31.43;28.57
66396;BME280;53207;51.378;-1.342;2023-06-26T00:06:44;100303.61;;;31.16;28.55
66396;BME280;53207;51.378;-1.342;2023-06-26T00:09:11;100307.42;;;31.42;28.51
66396;BME280;53207;51.378;-1.342;2023-06-26T00:11:39;100311.20;;;31.39;28.53
66396;BME280;53207;51.378;-1.342;2023-06-26T00:14:06;100311.65;;;31.39;28.42
66396;BME280;53207;51.378;-1.342;2023-06-26T00:16:34;100311.47;;;31.30;28.51
66396;BME280;53207;51.378;-1.342;2023-06-26T00:19:01;100310.61;;;31.07;28.42
66396;BME280;53207;51.378;-1.342;2023-06-26T00:21:28;100316.59;;;31.28;28.42
66396;BME280;53207;51.378;-1.342;2023-06-26T00:24:01;100317.92;;;31.23;28.46
66396;BME280;53207;51.378;-1.342;2023-06-26T00:26:28;100319.13;;;31.21;28.41
66396;BME280;53207;51.378;-1.342;2023-06-26T00:28:56;100318.22;;;31.24;28.42
66396;BME280;53207;51.378;-1.342;2023-06-26T00:31:23;100313.96;;;30.90;28.42
66396;BME280;53207;51.378;-1.342;2023-06-26T00:33:51;100318.38;;;31.39;28.36
66396;BME280;53207;51.378;-1.342;2023-06-26T00:36:18;100320.36;;;31.12;28.36
66396;BME280;53207;51.378;-1.342;2023-06-26T00:38:46;100327.11;;;31.10;28.38
66396;BME280;53207;51.378;-1.342;2023-06-26T00:41:13;100330.10;;;31.11;28.40
66396;BME280;53207;51.378;-1.342;2023-06-26T00:43:41;100328.99;;;31.07;28.42
66396;BME280;53207;51.378;-1.342;2023-06-26T00:46:10;100331.17;;;30.97;28.44
66396;BME280;53207;51.378;-1.342;2023-06-26T00:48:38;100328.86;;;31.03;28.37
66396;BME280;53207;51.378;-1.342;2023-06-26T00:51:06;100329.68;;;31.04;28.38
66396;BME280;53207;51.378;-1.342;2023-06-26T00:53:34;100333.43;;;31.02;28.39
66396;BME280;53207;51.378;-1.342;2023-06-26T00:56:02;100330.45;;;30.98;28.37
66396;BME280;53207;51.378;-1.342;2023-06-26T00:58:29;100330.33;;;31.01;28.34
66396;BME280;53207;51.378;-1.342;2023-06-26T01:00:57;100331.51;;;30.98;28.33
66396;BME280;53207;51.378;-1.342;2023-06-26T01:03:25;100335.45;;;31.15;28.31
66396;BME280;53207;51.378;-1.342;2023-06-26T01:05:53;100340.42;;;30.90;28.30
66396;BME280;53207;51.378;-1.342;2023-06-26T01:08:23;100341.48;;;30.91;28.26
66396;BME280;53207;51.378;-1.342;2023-06-26T01:10:51;100342.07;;;30.90;28.30
66396;BME280;53207;51.378;-1.342;2023-06-26T01:13:19;100346.64;;;30.91;28.33
66396;BME280;53207;51.378;-1.342;2023-06-26T01:15:47;100346.51;;;30.87;28.36
66396;BME280;53207;51.378;-1.342;2023-06-26T01:18:15;100344.00;;;31.30;28.35
66396;BME280;53207;51.378;-1.342;2023-06-26T01:20:43;100346.19;;;30.83;28.38
66396;BME280;53207;51.378;-1.342;2023-06-26T01:23:16;100343.94;;;31.00;28.37
66396;BME280;53207;51.378;-1.342;2023-06-26T01:25:59;100347.40;;;30.74;28.34
66396;BME280;53207;51.378;-1.342;2023-06-26T01:28:28;100348.53;;;30.74;28.34
66396;BME280;53207;51.378;-1.342;2023-06-26T01:30:56;100350.20;;;31.17;28.31
66396;BME280;53207;51.378;-1.342;2023-06-26T01:33:25;100348.79;;;30.71;28.34
66396;BME280;53207;51.378;-1.342;2023-06-26T01:35:52;100350.95;;;30.71;28.36
66396;BME280;53207;51.378;-1.342;2023-06-26T01:38:21;100352.06;;;30.86;28.46
66396;BME280;53207;51.378;-1.342;2023-06-26T01:40:50;100351.65;;;30.68;28.42
66396;BME280;53207;51.378;-1.342;2023-06-26T01:43:24;100350.80;;;31.09;28.44
66396;BME280;53207;51.378;-1.342;2023-06-26T01:45:59;100344.99;;;30.62;28.43
66396;BME280;53207;51.378;-1.342;2023-06-26T01:48:32;100346.87;;;30.62;28.40
66396;BME280;53207;51.378;-1.342;2023-06-26T01:51:02;100349.53;;;30.59;28.41
66396;BME280;53207;51.378;-1.342;2023-06-26T01:53:36;100349.11;;;30.56;28.38
66396;BME280;53207;51.378;-1.342;2023-06-26T01:56:07;100350.66;;;30.55;28.39
66396;BME280;53207;51.378;-1.342;2023-06-26T01:58:38;100360.72;;;30.99;28.43
66396;BME280;53207;51.378;-1.342;2023-06-26T02:01:07;100359.48;;;30.98;28.44
66396;BME280;53207;51.378;-1.342;2023-06-26T02:03:35;100363.42;;;30.74;28.45
66396;BME280;53207;51.378;-1.342;2023-06-26T02:06:02;100366.03;;;30.93;28.41
66396;BME280;53207;51.378;-1.342;2023-06-26T02:08:30;100368.74;;;30.68;28.44
66396;BME280;53207;51.378;-1.342;2023-06-26T02:10:57;100367.25;;;30.45;28.52
66396;BME280;53207;51.378;-1.342;2023-06-26T02:13:25;100360.16;;;30.83;28.55
66396;BME280;53207;51.378;-1.342;2023-06-26T02:15:52;100365.63;;;30.62;28.54
66396;BME280;53207;51.378;-1.342;2023-06-26T02:18:19;100368.18;;;30.33;28.56
66396;BME280;53207;51.378;-1.342;2023-06-26T02:20:47;100376.63;;;30.60;28.57
66396;BME280;53207;51.378;-1.342;2023-06-26T02:23:14;100378.26;;;30.73;28.59
66396;BME280;53207;51.378;-1.342;2023-06-26T02:25:42;100381.07;;;30.56;28.54
66396;BME280;53207;51.378;-1.342;2023-06-26T02:28:09;100377.62;;;30.74;28.53
66396;BME280;53207;51.378;-1.342;2023-06-26T02:30:37;100377.45;;;30.71;28.54
66396;BME280;53207;51.378;-1.342;2023-06-26T02:33:04;100380.88;;;30.67;28.61
66396;BME280;53207;51.378;-1.342;2023-06-26T02:35:32;100380.92;;;30.21;28.65
66396;BME280;53207;51.378;-1.342;2023-06-26T02:37:59;100384.19;;;30.40;28.67
66396;BME280;53207;51.378;-1.342;2023-06-26T02:40:27;100381.00;;;30.37;28.74
66396;BME280;53207;51.378;-1.342;2023-06-26T02:42:54;100380.82;;;30.63;28.69
66396;BME280;53207;51.378;-1.342;2023-06-26T02:45:22;100379.96;;;30.36;28.80
66396;BME280;53207;51.378;-1.342;2023-06-26T02:47:49;100382.68;;;30.62;28.82
66396;BME280;53207;51.378;-1.342;2023-06-26T02:50:17;100379.32;;;30.57;28.96
66396;BME280;53207;51.378;-1.342;2023-06-26T02:52:44;100378.82;;;30.55;29.05
66396;BME280;53207;51.378;-1.342;2023-06-26T02:55:12;100380.93;;;30.30;29.07
66396;BME280;53207;51.378;-1.342;2023-06-26T02:57:39;100379.35;;;30.53;28.98
66396;BME280;53207;51.378;-1.342;2023-06-26T03:00:08;100382.69;;;30.49;28.97
66396;BME280;53207;51.378;-1.342;2023-06-26T03:02:35;100384.18;;;30.47;28.88
66396;BME280;53207;51.378;-1.342;2023-06-26T03:05:03;100388.55;;;30.23;28.82
66396;BME280;53207;51.378;-1.342;2023-06-26T03:07:30;100384.65;;;30.44;28.82
66396;BME280;53207;51.378;-1.342;2023-06-26T03:09:58;100385.07;;;30.43;28.82
66396;BME280;53207;51.378;-1.342;2023-06-26T03:12:25;100391.02;;;30.39;28.76
66396;BME280;53207;51.378;-1.342;2023-06-26T03:14:53;100393.23;;;30.35;28.74
66396;BME280;53207;51.378;-1.342;2023-06-26T03:17:20;100392.61;;;30.35;28.77
66396;BME280;53207;51.378;-1.342;2023-06-26T03:19:48;100389.13;;;30.33;28.77
66396;BME280;53207;51.378;-1.342;2023-06-26T03:22:15;100391.97;;;30.29;28.74
66396;BME280;53207;51.378;-1.342;2023-06-26T03:24:44;100393.01;;;30.28;28.71
66396;BME280;53207;51.378;-1.342;2023-06-26T03:27:11;100394.09;;;30.24;28.71
66396;BME280;53207;51.378;-1.342;2023-06-26T03:29:39;100394.44;;;30.25;28.69
66396;BME280;53207;51.378;-1.342;2023-06-26T03:32:07;100393.85;;;30.17;28.67
66396;BME280;53207;51.378;-1.342;2023-06-26T03:34:35;100399.89;;;30.17;28.61
66396;BME280;53207;51.378;-1.342;2023-06-26T03:37:02;100393.79;;;30.14;28.66
66396;BME280;53207;51.378;-1.342;2023-06-26T03:39:30;100394.59;;;30.11;28.71
66396;BME280;53207;51.378;-1.342;2023-06-26T03:41:57;100398.59;;;30.14;28.61
66396;BME280;53207;51.378;-1.342;2023-06-26T03:44:25;100401.83;;;30.11;28.62
66396;BME280;53207;51.378;-1.342;2023-06-26T03:46:52;100406.92;;;30.03;28.61
66396;BME280;53207;51.378;-1.342;2023-06-26T03:49:20;100407.49;;;30.05;28.63
66396;BME280;53207;51.378;-1.342;2023-06-26T03:51:47;100412.16;;;30.01;28.62
66396;BME280;53207;51.378;-1.342;2023-06-26T03:54:15;100412.94;;;30.02;28.60
66396;BME280;53207;51.378;-1.342;2023-06-26T03:56:42;100416.96;;;29.75;28.58
66396;BME280;53207;51.378;-1.342;2023-06-26T03:59:10;100418.58;;;29.97;28.58
66396;BME280;53207;51.378;-1.342;2023-06-26T04:01:38;100419.59;;;29.75;28.55
66396;BME280;53207;51.378;-1.342;2023-06-26T04:04:05;100421.90;;;29.91;28.60
66396;BME280;53207;51.378;-1.342;2023-06-26T04:06:33;100425.63;;;30.20;28.58
66396;BME280;53207;51.378;-1.342;2023-06-26T04:09:00;100429.35;;;29.90;28.61
66396;BME280;53207;51.378;-1.342;2023-06-26T04:11:28;100435.01;;;29.90;28.55
66396;BME280;53207;51.378;-1.342;2023-06-26T04:13:55;100429.92;;;30.12;28.51
66396;BME280;53207;51.378;-1.342;2023-06-26T04:16:23;100424.99;;;30.08;28.55
66396;BME280;53207;51.378;-1.342;2023-06-26T04:18:50;100425.37;;;29.80;28.55
66396;BME280;53207;51.378;-1.342;2023-06-26T04:21:18;100433.31;;;29.79;28.58
66396;BME280;53207;51.378;-1.342;2023-06-26T04:23:45;100433.68;;;29.75;28.55
66396;BME280;53207;51.378;-1.342;2023-06-26T04:26:13;100440.43;;;29.75;28.49
66396;BME280;53207;51.378;-1.342;2023-06-26T04:28:40;100445.83;;;29.98;28.45
66396;BME280;53207;51.378;-1.342;2023-06-26T04:31:08;100450.39;;;29.70;28.47
66396;BME280;53207;51.378;-1.342;2023-06-26T04:33:36;100457.02;;;29.95;28.48
66396;BME280;53207;51.378;-1.342;2023-06-26T04:36:03;100465.70;;;29.65;28.44
66396;BME280;53207;51.378;-1.342;2023-06-26T04:38:31;100469.21;;;29.64;28.50
66396;BME280;53207;51.378;-1.342;2023-06-26T04:40:58;100465.27;;;29.62;28.44
66396;BME280;53207;51.378;-1.342;2023-06-26T04:43:25;100465.44;;;29.85;28.50
66396;BME280;53207;51.378;-1.342;2023-06-26T04:45:53;100463.92;;;29.88;28.42
66396;BME280;53207;51.378;-1.342;2023-06-26T04:48:20;100462.74;;;29.56;28.49
66396;BME280;53207;51.378;-1.342;2023-06-26T04:50:48;100460.64;;;29.56;28.45
66396;BME280;53207;51.378;-1.342;2023-06-26T04:53:15;100461.12;;;29.52;28.45
66396;BME280;53207;51.378;-1.342;2023-06-26T04:55:43;100463.32;;;29.73;28.50
66396;BME280;53207;51.378;-1.342;2023-06-26T04:58:11;100467.55;;;29.76;28.45
66396;BME280;53207;51.378;-1.342;2023-06-26T05:00:38;100469.25;;;29.47;28.45
66396;BME280;53207;51.378;-1.342;2023-06-26T05:03:06;100476.90;;;29.74;28.44
66396;BME280;53207;51.378;-1.342;2023-06-26T05:05:33;100487.06;;;29.70;28.47
66396;BME280;53207;51.378;-1.342;2023-06-26T05:08:13;100489.23;;;29.45;28.47
66396;BME280;53207;51.378;-1.342;2023-06-26T05:10:41;100489.88;;;29.67;28.47
66396;BME280;53207;51.378;-1.342;2023-06-26T05:13:08;100497.05;;;29.38;28.54
66396;BME280;53207;51.378;-1.342;2023-06-26T05:15:36;100495.61;;;29.58;28.53
66396;BME280;53207;51.378;-1.342;2023-06-26T05:18:03;100497.05;;;29.84;28.48
66396;BME280;53207;51.378;-1.342;2023-06-26T05:20:31;100493.45;;;29.60;28.52
66396;BME280;53207;51.378;-1.342;2023-06-26T05:22:58;100492.07;;;29.77;28.55
66396;BME280;53207;51.378;-1.342;2023-06-26T05:25:26;100498.92;;;29.76;28.54
66396;BME280;53207;51.378;-1.342;2023-06-26T05:27:54;100501.93;;;29.49;28.58
66396;BME280;53207;51.378;-1.342;2023-06-26T05:30:27;100501.43;;;29.69;28.57
66396;BME280;53207;51.378;-1.342;2023-06-26T05:32:55;100501.40;;;29.43;28.57
66396;BME280;53207;51.378;-1.342;2023-06-26T05:35:23;100503.38;;;29.39;28.56
66396;BME280;53207;51.378;-1.342;2023-06-26T05:37:54;100506.67;;;29.46;28.49
66396;BME280;53207;51.378;-1.342;2023-06-26T05:40:22;100505.44;;;29.61;28.59
66396;BME280;53207;51.378;-1.342;2023-06-26T05:42:50;100505.56;;;29.11;28.56
66396;BME280;53207;51.378;-1.342;2023-06-26T05:45:17;100494.82;;;29.60;28.54
66396;BME280;53207;51.378;-1.342;2023-06-26T05:47:45;100493.99;;;29.37;28.56
66396;BME280;53207;51.378;-1.342;2023-06-26T05:50:14;100496.21;;;29.59;28.55
66396;BME280;53207;51.378;-1.342;2023-06-26T05:52:42;100498.53;;;29.33;28.56
66396;BME280;53207;51.378;-1.342;2023-06-26T05:55:10;100500.17;;;29.56;28.54
66396;BME280;53207;51.378;-1.342;2023-06-26T05:57:38;100500.39;;;29.50;28.58
66396;BME280;53207;51.378;-1.342;2023-06-26T06:00:08;100497.25;;;29.29;28.59
66396;BME280;53207;51.378;-1.342;2023-06-26T06:02:36;100501.63;;;29.46;28.69
66396;BME280;53207;51.378;-1.342;2023-06-26T06:05:04;100503.36;;;29.26;28.72
66396;BME280;53207;51.378;-1.342;2023-06-26T06:07:32;100512.95;;;29.48;28.68
66396;BME280;53207;51.378;-1.342;2023-06-26T06:10:00;100515.54;;;29.28;28.69
66396;BME280;53207;51.378;-1.342;2023-06-26T06:12:27;100520.55;;;29.47;28.72
66396;BME280;53207;51.378;-1.342;2023-06-26T06:14:55;100523.78;;;29.42;28.84
66396;BME280;53207;51.378;-1.342;2023-06-26T06:17:23;100529.15;;;29.46;28.80
66396;BME280;53207;51.378;-1.342;2023-06-26T06:19:51;100534.83;;;29.40;28.89
66396;BME280;53207;51.378;-1.342;2023-06-26T06:22:18;100536.09;;;29.17;28.91
66396;BME280;53207;51.378;-1.342;2023-06-26T06:24:46;100532.37;;;29.44;28.90
66396;BME280;53207;51.378;-1.342;2023-06-26T06:27:13;100531.14;;;29.19;28.92
66396;BME280;53207;51.378;-1.342;2023-06-26T06:29:41;100537.66;;;29.20;28.98
66396;BME280;53207;51.378;-1.342;2023-06-26T06:32:08;100542.59;;;29.45;29.03
66396;BME280;53207;51.378;-1.342;2023-06-26T06:34:36;100547.09;;;29.37;29.15
66396;BME280;53207;51.378;-1.342;2023-06-26T06:37:04;100547.84;;;29.38;29.12
66396;BME280;53207;51.378;-1.342;2023-06-26T06:39:31;100550.10;;;29.15;29.19
66396;BME280;53207;51.378;-1.342;2023-06-26T06:41:58;100556.60;;;29.06;29.28
66396;BME280;53207;51.378;-1.342;2023-06-26T06:44:26;100567.77;;;29.11;29.22
66396;BME280;53207;51.378;-1.342;2023-06-26T06:46:54;100571.06;;;29.37;29.22
66396;BME280;53207;51.378;-1.342;2023-06-26T06:49:21;100568.38;;;29.16;29.28
66396;BME280;53207;51.378;-1.342;2023-06-26T06:51:49;100562.75;;;29.35;29.33
66396;BME280;53207;51.378;-1.342;2023-06-26T06:54:16;100565.27;;;29.32;29.33
66396;BME280;53207;51.378;-1.342;2023-06-26T06:56:44;100573.29;;;29.23;29.45
66396;BME280;53207;51.378;-1.342;2023-06-26T06:59:11;100584.06;;;29.01;29.38
66396;BME280;53207;51.378;-1.342;2023-06-26T07:01:40;100594.94;;;29.05;29.26
66396;BME280;53207;51.378;-1.342;2023-06-26T07:04:07;100592.22;;;29.36;29.16
66396;BME280;53207;51.378;-1.342;2023-06-26T07:06:35;100588.33;;;29.14;29.19
66396;BME280;53207;51.378;-1.342;2023-06-26T07:09:03;100590.14;;;29.31;29.18
66396;BME280;53207;51.378;-1.342;2023-06-26T07:11:30;100595.10;;;29.34;29.16
66396;BME280;53207;51.378;-1.342;2023-06-26T07:13:58;100595.69;;;29.32;29.13
66396;BME280;53207;51.378;-1.342;2023-06-26T07:16:25;100596.29;;;29.29;29.17
66396;BME280;53207;51.378;-1.342;2023-06-26T07:18:53;100596.07;;;29.33;29.07
66396;BME280;53207;51.378;-1.342;2023-06-26T07:21:21;100593.27;;;29.35;29.04
66396;BME280;53207;51.378;-1.342;2023-06-26T07:23:48;100592.26;;;29.29;29.05
66396;BME280;53207;51.378;-1.342;2023-06-26T07:26:16;100596.62;;;29.17;29.08
66396;BME280;53207;51.378;-1.342;2023-06-26T07:28:43;100610.63;;;29.24;29.01
66396;BME280;53207;51.378;-1.342;2023-06-26T07:31:11;100614.38;;;29.26;28.93
66396;BME280;53207;51.378;-1.342;2023-06-26T07:33:39;100616.75;;;29.23;29.02
66396;BME280;53207;51.378;-1.342;2023-06-26T07:36:06;100618.96;;;29.21;28.96
66396;BME280;53207;51.378;-1.342;2023-06-26T07:38:34;100618.89;;;29.21;28.96
66396;BME280;53207;51.378;-1.342;2023-06-26T07:41:01;100627.07;;;29.20;28.95
66396;BME280;53207;51.378;-1.342;2023-06-26T07:43:29;100623.27;;;29.17;29.03
66396;BME280;53207;51.378;-1.342;2023-06-26T07:45:56;100621.19;;;28.93;29.08
66396;BME280;53207;51.378;-1.342;2023-06-26T07:48:24;100618.76;;;28.96;29.05
66396;BME280;53207;51.378;-1.342;2023-06-26T07:50:52;100620.49;;;28.99;29.01
66396;BME280;53207;51.378;-1.342;2023-06-26T07:53:19;100619.66;;;29.11;29.04
66396;BME280;53207;51.378;-1.342;2023-06-26T07:55:47;100631.31;;;29.17;28.97
66396;BME280;53207;51.378;-1.342;2023-06-26T07:58:14;100644.65;;;29.22;28.90
66396;BME280;53207;51.378;-1.342;2023-06-26T08:00:42;100656.71;;;29.22;28.90
66396;BME280;53207;51.378;-1.342;2023-06-26T08:03:09;100651.25;;;28.91;29.05
66396;BME280;53207;51.378;-1.342;2023-06-26T08:05:37;100647.37;;;29.00;29.16
66396;BME280;53207;51.378;-1.342;2023-06-26T08:08:04;100644.19;;;29.11;29.00
66396;BME280;53207;51.378;-1.342;2023-06-26T08:10:32;100637.87;;;29.11;28.94
66396;BME280;53207;51.378;-1.342;2023-06-26T08:12:59;100637.60;;;29.09;28.91
66396;BME280;53207;51.378;-1.342;2023-06-26T08:15:27;100642.16;;;28.82;28.80
66396;BME280;53207;51.378;-1.342;2023-06-26T08:17:54;100642.68;;;29.10;28.73
66396;BME280;53207;51.378;-1.342;2023-06-26T08:20:22;100642.11;;;28.98;28.87
66396;BME280;53207;51.378;-1.342;2023-06-26T08:22:49;100653.38;;;29.07;28.80
66396;BME280;53207;51.378;-1.342;2023-06-26T08:25:17;100654.15;;;29.01;28.84
66396;BME280;53207;51.378;-1.342;2023-06-26T08:27:44;100646.98;;;29.01;28.79
66396;BME280;53207;51.378;-1.342;2023-06-26T08:30:12;100648.43;;;28.94;28.89
66396;BME280;53207;51.378;-1.342;2023-06-26T08:32:40;100643.45;;;28.79;28.83
66396;BME280;53207;51.378;-1.342;2023-06-26T08:35:07;100635.24;;;28.77;28.76
66396;BME280;53207;51.378;-1.342;2023-06-26T08:37:35;100640.38;;;29.01;28.79
66396;BME280;53207;51.378;-1.342;2023-06-26T08:40:03;100641.44;;;28.95;28.85
66396;BME280;53207;51.378;-1.342;2023-06-26T08:42:31;100643.11;;;29.03;28.71
66396;BME280;53207;51.378;-1.342;2023-06-26T08:44:58;100645.94;;;28.88;28.89
66396;BME280;53207;51.378;-1.342;2023-06-26T08:47:27;100651.69;;;29.05;28.62
66396;BME280;53207;51.378;-1.342;2023-06-26T08:50:01;100654.78;;;28.81;28.65
66396;BME280;53207;51.378;-1.342;2023-06-26T08:52:33;100655.53;;;29.02;28.67
66396;BME280;53207;51.378;-1.342;2023-06-26T08:55:09;100662.65;;;28.97;28.65
66396;BME280;53207;51.378;-1.342;2023-06-26T08:57:37;100658.93;;;28.85;28.77
66396;BME280;53207;51.378;-1.342;2023-06-26T09:00:05;100657.18;;;28.64;28.67
66396;BME280;53207;51.378;-1.342;2023-06-26T09:02:33;100660.72;;;28.85;28.57
66396;BME280;53207;51.378;-1.342;2023-06-26T09:05:01;100660.96;;;28.96;28.63
66396;BME280;53207;51.378;-1.342;2023-06-26T09:07:29;100659.06;;;28.94;28.67
66396;BME280;53207;51.378;-1.342;2023-06-26T09:09:57;100663.09;;;28.88;28.61
66396;BME280;53207;51.378;-1.342;2023-06-26T09:12:26;100662.28;;;28.90;28.65
66396;BME280;53207;51.378;-1.342;2023-06-26T09:14:55;100656.69;;;28.62;28.66
66396;BME280;53207;51.378;-1.342;2023-06-26T09:17:25;100656.91;;;28.66;28.67
66396;BME280;53207;51.378;-1.342;2023-06-26T09:19:53;100658.34;;;28.86;28.60
66396;BME280;53207;51.378;-1.342;2023-06-26T09:22:20;100665.67;;;28.88;28.59
66396;BME280;53207;51.378;-1.342;2023-06-26T09:24:47;100665.90;;;28.92;28.38
66396;BME280;53207;51.378;-1.342;2023-06-26T09:27:16;100664.41;;;28.89;28.49
66396;BME280;53207;51.378;-1.342;2023-06-26T09:29:45;100659.39;;;28.90;28.53
66396;BME280;53207;51.378;-1.342;2023-06-26T09:32:13;100661.03;;;28.97;28.32
66396;BME280;53207;51.378;-1.342;2023-06-26T09:34:42;100669.21;;;28.62;28.40
66396;BME280;53207;51.378;-1.342;2023-06-26T09:37:12;100671.68;;;28.83;28.35
66396;BME280;53207;51.378;-1.342;2023-06-26T09:39:39;100669.53;;;28.87;28.27
66396;BME280;53207;51.378;-1.342;2023-06-26T09:42:07;100676.48;;;28.64;28.33
66396;BME280;53207;51.378;-1.342;2023-06-26T09:44:34;100683.53;;;28.82;28.22
66396;BME280;53207;51.378;-1.342;2023-06-26T09:47:02;100686.28;;;28.77;28.17
66396;BME280;53207;51.378;-1.342;2023-06-26T09:49:30;100684.51;;;28.84;28.28
66396;BME280;53207;51.378;-1.342;2023-06-26T09:52:00;100690.30;;;28.87;28.00
66396;BME280;53207;51.378;-1.342;2023-06-26T09:54:28;100690.55;;;28.78;27.94
66396;BME280;53207;51.378;-1.342;2023-06-26T09:56:56;100685.63;;;28.72;28.07
66396;BME280;53207;51.378;-1.342;2023-06-26T09:59:33;100689.55;;;28.76;27.91
66396;BME280;53207;51.378;-1.342;2023-06-26T10:02:01;100691.47;;;28.75;28.02
66396;BME280;53207;51.378;-1.342;2023-06-26T10:04:29;100695.83;;;28.75;27.91
66396;BME280;53207;51.378;-1.342;2023-06-26T10:06:58;100696.12;;;28.69;28.01
66396;BME280;53207;51.378;-1.342;2023-06-26T10:09:29;100693.44;;;28.77;28.07
66396;BME280;53207;51.378;-1.342;2023-06-26T10:12:02;100697.76;;;28.78;27.74
66396;BME280;53207;51.378;-1.342;2023-06-26T10:14:33;100704.71;;;28.79;27.86
66396;BME280;53207;51.378;-1.342;2023-06-26T10:17:03;100709.59;;;28.84;27.75
66396;BME280;53207;51.378;-1.342;2023-06-26T10:19:32;100704.02;;;28.97;27.75
66396;BME280;53207;51.378;-1.342;2023-06-26T10:22:02;100709.18;;;28.69;27.90
66396;BME280;53207;51.378;-1.342;2023-06-26T10:24:33;100710.49;;;28.65;27.90
66396;BME280;53207;51.378;-1.342;2023-06-26T10:27:03;100716.75;;;28.80;27.75
66396;BME280;53207;51.378;-1.342;2023-06-26T10:29:32;100713.79;;;28.86;27.81
66396;BME280;53207;51.378;-1.342;2023-06-26T10:32:03;100718.22;;;28.75;27.96
66396;BME280;53207;51.378;-1.342;2023-06-26T10:34:31;100725.37;;;28.76;27.88
66396;BME280;53207;51.378;-1.342;2023-06-26T10:36:59;100724.61;;;28.71;27.89
66396;BME280;53207;51.378;-1.342;2023-06-26T10:39:26;100727.64;;;28.68;27.76
66396;BME280;53207;51.378;-1.342;2023-06-26T10:41:55;100732.63;;;28.70;27.89
66396;BME280;53207;51.378;-1.342;2023-06-26T10:44:41;100735.57;;;28.71;27.82
66396;BME280;53207;51.378;-1.342;2023-06-26T10:47:09;100726.66;;;28.47;27.74
66396;BME280;53207;51.378;-1.342;2023-06-26T10:49:37;100726.58;;;28.71;27.56
66396;BME280;53207;51.378;-1.342;2023-06-26T10:52:05;100725.62;;;28.67;27.78
66396;BME280;53207;51.378;-1.342;2023-06-26T10:54:32;100724.66;;;28.99;27.80
66396;BME280;53207;51.378;-1.342;2023-06-26T10:57:02;100723.00;;;28.69;27.85
66396;BME280;53207;51.378;-1.342;2023-06-26T10:59:31;100726.59;;;28.44;27.78
66396;BME280;53207;51.378;-1.342;2023-06-26T11:02:00;100731.07;;;28.66;27.77
66396;BME280;53207;51.378;-1.342;2023-06-26T11:04:46;100727.46;;;28.57;27.87
66396;BME280;53207;51.378;-1.342;2023-06-26T11:07:15;100724.15;;;28.79;27.78
66396;BME280;53207;51.378;-1.342;2023-06-26T11:09:54;100724.29;;;28.46;27.88
66396;BME280;53207;51.378;-1.342;2023-06-26T11:12:38;100719.84;;;28.67;27.87
66396;BME280;53207;51.378;-1.342;2023-06-26T11:15:08;100730.10;;;28.66;27.95
66396;BME280;53207;51.378;-1.342;2023-06-26T11:17:36;100727.79;;;28.75;27.74
66396;BME280;53207;51.378;-1.342;2023-06-26T11:20:06;100735.60;;;28.62;27.69
66396;BME280;53207;51.378;-1.342;2023-06-26T11:22:34;100733.02;;;28.97;27.63
66396;BME280;53207;51.378;-1.342;2023-06-26T11:25:04;100738.40;;;28.72;27.73
66396;BME280;53207;51.378;-1.342;2023-06-26T11:27:37;100744.59;;;28.72;27.83
66396;BME280;53207;51.378;-1.342;2023-06-26T11:30:06;100746.86;;;28.78;27.83
66396;BME280;53207;51.378;-1.342;2023-06-26T11:32:34;100748.66;;;28.71;27.94
66396;BME280;53207;51.378;-1.342;2023-06-26T11:35:01;100747.00;;;28.76;27.81
66396;BME280;53207;51.378;-1.342;2023-06-26T11:37:29;100750.86;;;28.80;27.86
66396;BME280;53207;51.378;-1.342;2023-06-26T11:39:56;100744.16;;;28.81;27.83
66396;BME280;53207;51.378;-1.342;2023-06-26T11:42:24;100747.13;;;28.79;27.78
66396;BME280;53207;51.378;-1.342;2023-06-26T11:44:52;100745.87;;;28.71;27.90
66396;BME280;53207;51.378;-1.342;2023-06-26T11:47:21;100749.77;;;28.76;27.83
66396;BME280;53207;51.378;-1.342;2023-06-26T11:49:49;100747.98;;;28.78;27.87
66396;BME280;53207;51.378;-1.342;2023-06-26T11:52:16;100747.39;;;29.03;27.93
66396;BME280;53207;51.378;-1.342;2023-06-26T11:54:45;100744.60;;;28.74;27.74
66396;BME280;53207;51.378;-1.342;2023-06-26T11:57:14;100746.90;;;28.75;27.65
66396;BME280;53207;51.378;-1.342;2023-06-26T11:59:41;100749.31;;;28.78;27.62
66396;BME280;53207;51.378;-1.342;2023-06-26T12:02:10;100751.63;;;28.78;27.65
66396;BME280;53207;51.378;-1.342;2023-06-26T12:04:41;100757.20;;;28.76;27.66
66396;BME280;53207;51.378;-1.342;2023-06-26T12:07:10;100758.78;;;28.82;27.57
66396;BME280;53207;51.378;-1.342;2023-06-26T12:09:40;100751.48;;;29.05;27.66
66396;BME280;53207;51.378;-1.342;2023-06-26T12:12:09;100751.00;;;28.76;27.55
66396;BME280;53207;51.378;-1.342;2023-06-26T12:14:38;100748.40;;;28.74;27.59
66396;BME280;53207;51.378;-1.342;2023-06-26T12:17:09;100755.98;;;28.80;27.54
66396;BME280;53207;51.378;-1.342;2023-06-26T12:19:38;100754.15;;;28.73;27.47
66396;BME280;53207;51.378;-1.342;2023-06-26T12:22:07;100755.13;;;28.82;27.33
66396;BME280;53207;51.378;-1.342;2023-06-26T12:24:36;100750.13;;;28.77;27.36
66396;BME280;53207;51.378;-1.342;2023-06-26T12:27:08;100747.97;;;28.73;27.46
66396;BME280;53207;51.378;-1.342;2023-06-26T12:29:37;100747.34;;;28.71;27.44
66396;BME280;53207;51.378;-1.342;2023-06-26T12:32:09;100739.40;;;28.73;27.44
66396;BME280;53207;51.378;-1.342;2023-06-26T12:34:37;100743.05;;;28.71;27.31
66396;BME280;53207;51.378;-1.342;2023-06-26T12:37:07;100741.51;;;28.52;27.35
66396;BME280;53207;51.378;-1.342;2023-06-26T12:39:52;100740.49;;;28.79;27.36
66396;BME280;53207;51.378;-1.342;2023-06-26T12:42:21;100738.92;;;28.74;27.23
66396;BME280;53207;51.378;-1.342;2023-06-26T12:44:50;100735.01;;;28.78;27.29
66396;BME280;53207;51.378;-1.342;2023-06-26T12:47:19;100732.34;;;28.78;27.23